createdAt,value
2019-02-26T00:02:23.767Z,97749.20
2019-02-26T00:04:52.126Z,97751.92
2019-02-26T00:07:25.147Z,97747.02
2019-02-26T00:09:55.097Z,97745.09
2019-02-26T00:12:22.253Z,97748.58
2019-02-26T00:14:50.082Z,97754.96
2019-02-26T00:17:21.764Z,97764.80
2019-02-26T00:19:48.131Z,97763.29
2019-02-26T00:22:15.967Z,97758.21
2019-02-26T00:24:44.302Z,97752.00
2019-02-26T00:27:10.478Z,97757.36
2019-02-26T00:29:36.706Z,97759.16
2019-02-26T00:32:04.487Z,97755.00
2019-02-26T00:34:32.351Z,97750.98
2019-02-26T00:36:59.904Z,97751.38
2019-02-26T00:39:29.067Z,97750.34
2019-02-26T00:41:55.879Z,97748.84
2019-02-26T00:44:25.225Z,97751.72
2019-02-26T00:46:53.583Z,97747.39
2019-02-26T00:49:21.533Z,97735.90
2019-02-26T00:51:52.782Z,97731.89
2019-02-26T00:54:22.192Z,97726.11
2019-02-26T00:56:47.349Z,97723.95
2019-02-26T00:59:16.771Z,97710.64
2019-02-26T01:01:46.039Z,97713.70
2019-02-26T01:04:10.946Z,97716.68
2019-02-26T01:06:40.605Z,97711.16
2019-02-26T01:09:10.699Z,97708.22
2019-02-26T01:11:37.059Z,97704.95
2019-02-26T01:14:05.531Z,97712.41
2019-02-26T01:16:31.764Z,97716.77
2019-02-26T01:18:58.332Z,97711.26
2019-02-26T01:21:29.134Z,97707.05
2019-02-26T01:23:56.709Z,97711.26
2019-02-26T01:26:27.306Z,97711.61
2019-02-26T01:28:53.747Z,97719.56
2019-02-26T01:31:22.288Z,97709.75
2019-02-26T01:33:49.083Z,97712.11
2019-02-26T01:36:18.632Z,97709.59
2019-02-26T01:38:46.370Z,97704.25
2019-02-26T01:41:17.856Z,97706.16
2019-02-26T01:43:43.835Z,97705.84
2019-02-26T01:46:11.708Z,97704.36
2019-02-26T01:48:39.530Z,97704.72
2019-02-26T01:51:06.772Z,97708.56
2019-02-26T01:53:33.143Z,97704.63
2019-02-26T01:56:04.625Z,97703.48
2019-02-26T01:58:28.621Z,97701.58
2019-02-26T02:00:55.474Z,97698.13
2019-02-26T02:03:23.105Z,97698.77
2019-02-26T02:05:52.461Z,97690.95
2019-02-26T02:08:22.064Z,97685.72
2019-02-26T02:10:56.268Z,97679.33
2019-02-26T02:13:28.338Z,97678.56
2019-02-26T02:15:55.180Z,97662.64
2019-02-26T02:18:23.071Z,97662.19
2019-02-26T02:20:50.592Z,97664.36
2019-02-26T02:23:19.404Z,97673.45
2019-02-26T02:25:45.733Z,97662.47
2019-02-26T02:28:11.919Z,97658.08
2019-02-26T02:30:39.022Z,97657.40
2019-02-26T02:33:05.393Z,97657.89
2019-02-26T02:35:32.314Z,97649.53
2019-02-26T02:38:00.119Z,97648.13
2019-02-26T02:40:27.072Z,97655.72
2019-02-26T02:42:53.242Z,97640.92
2019-02-26T02:45:20.958Z,97639.52
2019-02-26T02:47:54.755Z,97638.76
2019-02-26T02:50:18.474Z,97637.53
2019-02-26T02:52:44.978Z,97633.38
2019-02-26T02:55:13.835Z,97631.16
2019-02-26T02:57:41.047Z,97640.52
2019-02-26T03:00:12.581Z,97642.78
2019-02-26T03:02:42.860Z,97643.14
2019-02-26T03:05:09.619Z,97642.51
2019-02-26T03:07:36.077Z,97651.88
2019-02-26T03:10:06.666Z,97650.74
2019-02-26T03:12:35.409Z,97651.69
2019-02-26T03:15:08.076Z,97647.08
2019-02-26T03:17:38.371Z,97646.89
2019-02-26T03:20:10.029Z,97650.06
2019-02-26T03:22:41.548Z,97647.52
2019-02-26T03:25:20.517Z,97647.28
2019-02-26T03:27:51.251Z,97639.59
2019-02-26T03:30:26.319Z,97640.62
2019-02-26T03:32:50.557Z,97639.85
2019-02-26T03:35:23.047Z,97640.42
2019-02-26T03:37:49.637Z,97642.28
2019-02-26T03:40:16.832Z,97644.27
2019-02-26T03:42:46.548Z,97647.63
2019-02-26T03:45:15.095Z,97645.37
2019-02-26T03:47:41.307Z,97640.25
2019-02-26T03:50:12.232Z,97641.07
2019-02-26T03:52:40.321Z,97638.36
2019-02-26T03:55:09.569Z,97634.33
2019-02-26T03:57:40.945Z,97639.47
2019-02-26T04:00:16.722Z,97636.53
2019-02-26T04:02:45.698Z,97644.39
2019-02-26T04:05:13.145Z,97638.23
2019-02-26T04:07:39.526Z,97648.64
2019-02-26T04:10:07.372Z,97647.88
2019-02-26T04:12:39.253Z,97644.39
2019-02-26T04:15:05.457Z,97638.10
2019-02-26T04:17:33.657Z,97643.60
2019-02-26T04:19:59.626Z,97639.47
2019-02-26T04:22:26.956Z,97640.10
2019-02-26T04:25:00.666Z,97631.59
2019-02-26T04:27:36.329Z,97627.57
2019-02-26T04:30:34.053Z,97634.77
2019-02-26T04:33:20.186Z,97637.31
2019-02-26T04:36:05.012Z,97645.77
2019-02-26T04:39:13.676Z,97648.76
2019-02-26T04:42:00.595Z,97646.99
2019-02-26T04:44:52.915Z,97648.56
2019-02-26T04:47:24.956Z,97648.56
2019-02-26T04:49:51.801Z,97636.57
2019-02-26T04:52:21.460Z,97628.73
2019-02-26T04:54:47.561Z,97626.17
2019-02-26T04:57:13.855Z,97621.73
2019-02-26T04:59:43.209Z,97615.67
2019-02-26T05:02:12.211Z,97618.86
2019-02-26T05:04:42.104Z,97610.73
2019-02-26T05:07:12.745Z,97606.38
2019-02-26T05:09:37.194Z,97610.31
2019-02-26T05:12:03.394Z,97598.50
2019-02-26T05:14:29.748Z,97597.73
2019-02-26T05:16:57.084Z,97600.34
2019-02-26T05:19:24.446Z,97594.66
2019-02-26T05:21:50.802Z,97599.44
2019-02-26T05:24:18.088Z,97591.84
2019-02-26T05:26:45.781Z,97599.30
2019-02-26T05:29:15.281Z,97606.87
2019-02-26T05:31:43.273Z,97608.95
2019-02-26T05:34:09.449Z,97608.95
2019-02-26T05:36:42.048Z,97619.52
2019-02-26T05:39:07.705Z,97613.78
2019-02-26T05:41:34.951Z,97607.30
2019-02-26T05:44:04.166Z,97608.20
2019-02-26T05:46:29.640Z,97603.70
2019-02-26T05:48:58.204Z,97601.43
2019-02-26T05:51:27.218Z,97606.35
2019-02-26T05:53:52.664Z,97606.61
2019-02-26T05:56:20.690Z,97616.48
2019-02-26T05:58:50.543Z,97612.36
2019-02-26T06:01:19.249Z,97616.25
2019-02-26T06:03:46.738Z,97624.39
2019-02-26T06:06:13.205Z,97616.16
2019-02-26T06:08:41.252Z,97612.98
2019-02-26T06:11:07.535Z,97615.59
2019-02-26T06:13:38.247Z,97615.50
2019-02-26T06:16:07.600Z,97626.34
2019-02-26T06:18:33.908Z,97626.52
2019-02-26T06:21:01.304Z,97616.33
2019-02-26T06:23:28.793Z,97623.64
2019-02-26T06:25:59.036Z,97626.52
2019-02-26T06:28:24.986Z,97625.03
2019-02-26T06:30:51.100Z,97616.64
2019-02-26T06:33:17.331Z,97624.18
2019-02-26T06:35:44.446Z,97630.52
2019-02-26T06:38:11.654Z,97633.59
2019-02-26T06:40:39.333Z,97626.14
2019-02-26T06:43:05.943Z,97629.67
2019-02-26T06:45:32.122Z,97632.85
2019-02-26T06:47:59.733Z,97626.92
2019-02-26T06:50:25.955Z,97622.91
2019-02-26T06:52:54.203Z,97633.51
2019-02-26T06:55:20.508Z,97633.27
2019-02-26T06:57:49.690Z,97645.05
2019-02-26T07:00:18.703Z,97636.21
2019-02-26T07:02:46.150Z,97631.75
2019-02-26T07:05:13.365Z,97628.69
2019-02-26T07:07:39.646Z,97627.95
2019-02-26T07:10:09.367Z,97629.46
2019-02-26T07:12:35.542Z,97641.28
2019-02-26T07:15:01.988Z,97644.09
2019-02-26T07:17:31.610Z,97640.00
2019-02-26T07:20:00.404Z,97635.82
2019-02-26T07:22:27.340Z,97645.96
2019-02-26T07:24:53.948Z,97643.71
2019-02-26T07:27:24.132Z,97639.61
2019-02-26T07:29:52.364Z,97643.75
2019-02-26T07:32:20.186Z,97631.78
2019-02-26T07:34:49.330Z,97643.98
2019-02-26T07:37:15.786Z,97643.98
2019-02-26T07:39:44.170Z,97646.80
2019-02-26T07:42:11.605Z,97647.00
2019-02-26T07:44:38.280Z,97659.10
2019-02-26T07:47:06.704Z,97655.17
2019-02-26T07:49:34.563Z,97652.03
2019-02-26T07:52:03.244Z,97653.97
2019-02-26T07:54:29.115Z,97650.25
2019-02-26T07:56:57.520Z,97646.05
2019-02-26T07:59:32.361Z,97647.55
2019-02-26T08:01:56.131Z,97646.06
2019-02-26T08:04:23.912Z,97641.59
2019-02-26T08:06:52.347Z,97637.29
2019-02-26T08:09:21.312Z,97642.53
2019-02-26T08:11:49.004Z,97639.92
2019-02-26T08:14:16.097Z,97635.27
2019-02-26T08:16:43.443Z,97635.19
2019-02-26T08:19:10.590Z,97645.45
2019-02-26T08:21:39.122Z,97633.36
2019-02-26T08:24:05.294Z,97643.40
2019-02-26T08:26:31.471Z,97641.70
2019-02-26T08:28:57.556Z,97644.34
2019-02-26T08:31:25.543Z,97650.91
2019-02-26T08:33:51.928Z,97647.22
2019-02-26T08:36:19.074Z,97644.38
2019-02-26T08:38:45.256Z,97641.03
2019-02-26T08:41:11.357Z,97642.11
2019-02-26T08:43:37.546Z,97636.76
2019-02-26T08:46:03.892Z,97632.91
2019-02-26T08:48:30.163Z,97642.55
2019-02-26T08:51:00.618Z,97632.80
2019-02-26T08:53:26.490Z,97632.49
2019-02-26T08:55:53.708Z,97629.04
2019-02-26T08:58:20.690Z,97631.02
2019-02-26T09:00:47.036Z,97619.28
2019-02-26T09:03:15.580Z,97625.41
2019-02-26T09:05:42.742Z,97617.85
2019-02-26T09:08:12.847Z,97617.00
2019-02-26T09:10:41.326Z,97623.53
2019-02-26T09:13:09.322Z,97620.03
2019-02-26T09:15:39.047Z,97616.11
2019-02-26T09:18:05.274Z,97614.69
2019-02-26T09:20:31.463Z,97610.48
2019-02-26T09:22:59.682Z,97609.63
2019-02-26T09:25:28.568Z,97616.60
2019-02-26T09:27:53.887Z,97617.86
2019-02-26T09:30:20.083Z,97613.26
2019-02-26T09:32:46.286Z,97608.50
2019-02-26T09:35:16.289Z,97617.70
2019-02-26T09:37:44.849Z,97621.16
2019-02-26T09:40:17.193Z,97632.41
2019-02-26T09:42:47.185Z,97635.61
2019-02-26T09:45:20.409Z,97640.83
2019-02-26T09:47:47.892Z,97650.88
2019-02-26T09:50:15.290Z,97648.64
2019-02-26T09:52:45.132Z,97646.11
2019-02-26T09:55:14.054Z,97653.94
2019-02-26T09:57:40.189Z,97651.69
2019-02-26T10:00:14.591Z,97642.94
2019-02-26T10:02:42.568Z,97642.73
2019-02-26T10:05:11.764Z,97640.93
2019-02-26T10:07:38.766Z,97638.80
2019-02-26T10:10:16.770Z,97639.62
2019-02-26T10:12:42.897Z,97639.24
2019-02-26T10:15:11.418Z,97641.77
2019-02-26T10:17:40.190Z,97635.75
2019-02-26T10:20:10.155Z,97646.64
2019-02-26T10:22:38.515Z,97640.22
2019-02-26T10:25:06.932Z,97630.38
2019-02-26T10:27:35.770Z,97630.82
2019-02-26T10:30:02.823Z,97633.59
2019-02-26T10:32:29.757Z,97628.83
2019-02-26T10:34:56.036Z,97633.98
2019-02-26T10:37:23.637Z,97642.79
2019-02-26T10:39:52.075Z,97640.59
2019-02-26T10:42:18.560Z,97645.34
2019-02-26T10:44:44.899Z,97654.19
2019-02-26T10:47:11.218Z,97651.14
2019-02-26T10:49:37.423Z,97651.89
2019-02-26T10:52:03.573Z,97658.49
2019-02-26T10:54:37.515Z,97659.25
2019-02-26T10:57:03.552Z,97652.47
2019-02-26T10:59:28.831Z,97653.17
2019-02-26T11:01:57.599Z,97650.84
2019-02-26T11:04:23.251Z,97649.72
2019-02-26T11:06:49.522Z,97652.70
2019-02-26T11:09:22.250Z,97661.72
2019-02-26T11:11:47.151Z,97653.16
2019-02-26T11:14:16.419Z,97648.12
2019-02-26T11:16:41.547Z,97644.89
2019-02-26T11:19:12.359Z,97641.05
2019-02-26T11:21:38.701Z,97638.41
2019-02-26T11:24:06.104Z,97637.31
2019-02-26T11:26:35.191Z,97623.47
2019-02-26T11:29:01.382Z,97623.48
2019-02-26T11:31:27.638Z,97623.77
2019-02-26T11:33:56.400Z,97619.08
2019-02-26T11:36:21.957Z,97620.95
2019-02-26T11:38:48.251Z,97618.52
2019-02-26T11:41:14.562Z,97627.27
2019-02-26T11:43:41.097Z,97623.21
2019-02-26T11:46:08.749Z,97616.41
2019-02-26T11:48:38.628Z,97615.16
2019-02-26T11:51:05.087Z,97607.98
2019-02-26T11:53:31.763Z,97610.97
2019-02-26T11:56:00.024Z,97603.16
2019-02-26T11:58:40.494Z,97598.67
2019-02-26T12:01:04.999Z,97604.19
2019-02-26T12:03:34.128Z,97599.94
2019-02-26T12:06:01.996Z,97598.16
2019-02-26T12:08:30.409Z,97598.42
2019-02-26T12:11:01.174Z,97598.16
2019-02-26T12:13:27.466Z,97593.50
2019-02-26T12:15:56.868Z,97592.43
2019-02-26T12:18:23.167Z,97598.77
2019-02-26T12:20:49.602Z,97598.34
2019-02-26T12:23:16.880Z,97592.87
2019-02-26T12:25:44.426Z,97585.42
2019-02-26T12:28:13.722Z,97578.96
2019-02-26T12:30:43.742Z,97577.91
2019-02-26T12:33:14.695Z,97563.48
2019-02-26T12:35:43.515Z,97561.98
2019-02-26T12:38:18.322Z,97554.12
2019-02-26T12:40:41.142Z,97551.94
2019-02-26T12:43:08.453Z,97556.10
2019-02-26T12:45:40.814Z,97564.94
2019-02-26T12:48:10.308Z,97565.39
2019-02-26T12:50:37.429Z,97570.23
2019-02-26T12:53:04.645Z,97567.89
2019-02-26T12:55:32.839Z,97564.25
2019-02-26T12:58:01.800Z,97561.45
2019-02-26T13:00:28.053Z,97553.94
2019-02-26T13:02:54.271Z,97551.62
2019-02-26T13:05:22.948Z,97545.25
2019-02-26T13:07:48.832Z,97554.41
2019-02-26T13:10:20.642Z,97557.05
2019-02-26T13:12:52.984Z,97560.98
2019-02-26T13:15:19.320Z,97557.30
2019-02-26T13:17:48.860Z,97555.71
2019-02-26T13:20:23.542Z,97553.52
2019-02-26T13:22:50.124Z,97561.25
2019-02-26T13:25:17.758Z,97557.09
2019-02-26T13:27:49.102Z,97552.92
2019-02-26T13:30:26.209Z,97557.22
2019-02-26T13:33:00.506Z,97554.48
2019-02-26T13:35:23.906Z,97549.34
2019-02-26T13:37:53.640Z,97547.58
2019-02-26T13:40:21.533Z,97541.95
2019-02-26T13:45:20.812Z,97542.92
2019-02-26T13:47:47.385Z,97532.06
2019-02-26T13:50:27.474Z,97524.57
2019-02-26T13:52:57.692Z,97532.08
2019-02-26T13:55:23.906Z,97530.57
2019-02-26T13:57:50.450Z,97526.91
2019-02-26T14:00:25.957Z,97515.87
2019-02-26T14:02:46.343Z,97513.12
2019-02-26T14:05:15.667Z,97520.74
2019-02-26T14:07:44.212Z,97515.92
2019-02-26T14:10:16.996Z,97511.90
2019-02-26T14:12:43.557Z,97516.27
2019-02-26T14:15:16.650Z,97586.95
2019-02-26T14:17:42.902Z,97511.88
2019-02-26T14:20:11.019Z,97501.47
2019-02-26T14:22:37.581Z,97507.69
2019-02-26T14:25:05.103Z,97504.20
2019-02-26T14:27:31.418Z,97499.86
2019-02-26T14:29:58.839Z,97497.48
2019-02-26T14:32:25.278Z,97498.07
2019-02-26T14:34:52.193Z,97497.98
2019-02-26T14:37:18.616Z,97502.03
2019-02-26T14:39:44.774Z,97504.45
2019-02-26T14:42:10.935Z,97494.98
2019-02-26T14:44:37.086Z,97494.65
2019-02-26T14:47:05.445Z,97491.39
2019-02-26T14:49:31.552Z,97486.03
2019-02-26T14:51:57.840Z,97483.05
2019-02-26T14:54:24.070Z,97487.41
2019-02-26T14:56:51.206Z,97476.73
2019-02-26T14:59:17.578Z,97480.14
2019-02-26T15:01:43.797Z,97475.18
2019-02-26T15:04:10.065Z,97477.32
2019-02-26T15:06:36.296Z,97479.03
2019-02-26T15:09:06.551Z,97469.84
2019-02-26T15:11:33.416Z,97471.33
2019-02-26T15:14:00.990Z,97469.70
2019-02-26T15:16:27.335Z,97476.11
2019-02-26T15:18:57.884Z,97476.36
2019-02-26T15:21:24.069Z,97475.33
2019-02-26T15:23:50.458Z,97474.29
2019-02-26T15:26:17.294Z,97472.88
2019-02-26T15:28:43.572Z,97480.06
2019-02-26T15:31:11.275Z,97473.52
2019-02-26T15:33:37.942Z,97465.28
2019-02-26T15:36:06.965Z,97469.07
2019-02-26T15:38:33.365Z,97470.83
2019-02-26T15:40:59.940Z,97477.80
2019-02-26T15:43:26.132Z,97463.82
2019-02-26T15:45:53.139Z,97474.30
2019-02-26T15:48:19.280Z,97478.86
2019-02-26T15:50:45.756Z,97476.91
2019-02-26T15:53:12.601Z,97486.16
2019-02-26T15:55:38.879Z,97477.00
2019-02-26T15:58:06.784Z,97474.58
2019-02-26T16:00:37.768Z,97483.45
2019-02-26T16:03:02.513Z,97492.68
2019-02-26T16:05:35.824Z,97496.47
2019-02-26T16:08:02.649Z,97487.88
2019-02-26T16:10:28.854Z,97485.50
2019-02-26T16:12:57.274Z,97478.92
2019-02-26T16:15:23.503Z,97488.42
2019-02-26T16:17:49.719Z,97483.73
2019-02-26T16:20:18.564Z,97489.55
2019-02-26T16:22:44.972Z,97483.20
2019-02-26T16:25:11.294Z,97492.25
2019-02-26T16:27:38.592Z,97492.19
2019-02-26T16:30:18.016Z,97501.37
2019-02-26T16:32:44.356Z,97490.98
2019-02-26T16:35:10.747Z,97492.72
2019-02-26T16:37:38.779Z,97493.87
2019-02-26T16:40:08.524Z,97491.97
2019-02-26T16:42:35.738Z,97494.93
2019-02-26T16:45:02.952Z,97485.98
2019-02-26T16:47:30.947Z,97489.31
2019-02-26T16:49:58.634Z,97489.50
2019-02-26T16:52:27.459Z,97493.67
2019-02-26T16:54:53.747Z,97499.26
2019-02-26T16:57:20.992Z,97496.93
2019-02-26T16:59:47.412Z,97493.61
2019-02-26T17:02:14.125Z,97500.17
2019-02-26T17:04:40.813Z,97502.78
2019-02-26T17:07:07.617Z,97503.95
2019-02-26T17:09:34.008Z,97500.53
2019-02-26T17:12:00.373Z,97510.53
2019-02-26T17:14:26.629Z,97518.25
2019-02-26T17:16:53.452Z,97519.11
2019-02-26T17:19:19.710Z,97522.39
2019-02-26T17:21:45.866Z,97523.23
2019-02-26T17:24:12.075Z,97519.68
2019-02-26T17:26:38.502Z,97513.06
2019-02-26T17:29:04.758Z,97523.58
2019-02-26T17:31:31.314Z,97522.41
2019-02-26T17:33:57.641Z,97523.28
2019-02-26T17:36:23.851Z,97524.87
2019-02-26T17:38:51.786Z,97521.74
2019-02-26T17:41:18.300Z,97513.95
2019-02-26T17:43:44.795Z,97502.55
2019-02-26T17:46:11.169Z,97497.86
2019-02-26T17:48:43.443Z,97497.84
2019-02-26T17:51:05.807Z,97503.48
2019-02-26T17:53:31.987Z,97505.65
2019-02-26T17:55:58.334Z,97499.05
2019-02-26T17:58:25.479Z,97498.20
2019-02-26T18:00:53.695Z,97495.45
2019-02-26T18:03:19.931Z,97488.13
2019-02-26T18:05:51.385Z,97486.33
2019-02-26T18:08:18.740Z,97492.09
2019-02-26T18:10:42.183Z,97496.27
2019-02-26T18:13:08.400Z,97498.66
2019-02-26T18:15:34.518Z,97496.36
2019-02-26T18:18:00.840Z,97492.80
2019-02-26T18:20:28.731Z,97491.36
2019-02-26T18:22:55.151Z,97485.04
2019-02-26T18:25:22.493Z,97490.28
2019-02-26T18:27:49.041Z,97485.84
2019-02-26T18:30:22.749Z,97486.55
2019-02-26T18:32:50.476Z,97489.98
2019-02-26T18:35:17.402Z,97486.37
2019-02-26T18:37:46.313Z,97482.31
2019-02-26T18:40:14.180Z,97476.10
2019-02-26T18:42:41.440Z,97477.15
2019-02-26T18:45:13.427Z,97467.29
2019-02-26T18:47:42.253Z,97480.34
2019-02-26T18:50:07.889Z,97483.94
2019-02-26T18:52:34.409Z,97482.00
2019-02-26T18:55:00.625Z,97478.17
2019-02-26T18:57:26.854Z,97478.34
2019-02-26T18:59:53.588Z,97478.01
2019-02-26T19:02:20.409Z,97489.06
2019-02-26T19:04:48.762Z,97485.11
2019-02-26T19:07:16.503Z,97482.53
2019-02-26T19:09:44.972Z,97482.74
2019-02-26T19:12:10.862Z,97480.66
2019-02-26T19:14:41.883Z,97480.23
2019-02-26T19:17:05.287Z,97486.77
2019-02-26T19:19:31.612Z,97491.25
2019-02-26T19:21:58.993Z,97492.76
2019-02-26T19:24:25.473Z,97505.77
2019-02-26T19:26:51.634Z,97507.48
2019-02-26T19:29:17.897Z,97506.15
2019-02-26T19:31:44.383Z,97506.83
2019-02-26T19:34:10.681Z,97501.03
2019-02-26T19:36:36.865Z,97506.55
2019-02-26T19:39:04.716Z,97510.88
2019-02-26T19:41:32.701Z,97503.87
2019-02-26T19:44:00.034Z,97503.51
2019-02-26T19:46:27.517Z,97505.91
2019-02-26T19:48:54.162Z,97501.20
2019-02-26T19:51:22.899Z,97501.34
2019-02-26T19:53:48.752Z,97496.08
2019-02-26T19:56:14.954Z,97487.38
2019-02-26T19:58:41.525Z,97492.27
2019-02-26T20:01:07.966Z,97486.94
2019-02-26T20:03:39.963Z,97486.47
2019-02-26T20:06:03.172Z,97492.37
2019-02-26T20:08:29.313Z,97491.38
2019-02-26T20:10:55.523Z,97491.19
2019-02-26T20:13:21.663Z,97500.38
2019-02-26T20:15:47.951Z,97502.98
2019-02-26T20:18:20.709Z,97502.14
2019-02-26T20:20:45.650Z,97499.61
2019-02-26T20:23:10.529Z,97505.71
2019-02-26T20:25:36.715Z,97509.74
2019-02-26T20:28:05.550Z,97505.41
2019-02-26T20:30:30.943Z,97506.27
2019-02-26T20:32:57.287Z,97504.87
2019-02-26T20:35:24.561Z,97499.59
2019-02-26T20:37:50.764Z,97496.60
2019-02-26T20:40:23.737Z,97492.67
2019-02-26T20:42:50.116Z,97493.13
2019-02-26T20:45:18.111Z,97488.47
2019-02-26T20:47:46.372Z,97493.40
2019-02-26T20:50:12.907Z,97488.42
2019-02-26T20:52:39.271Z,97490.69
2019-02-26T20:55:08.643Z,97485.90
2019-02-26T20:57:37.723Z,97499.18
2019-02-26T21:00:06.593Z,97495.34
2019-02-26T21:02:34.646Z,97498.05
2019-02-26T21:05:00.872Z,97488.30
2019-02-26T21:07:27.046Z,97490.64
2019-02-26T21:09:53.213Z,97478.92
2019-02-26T21:12:19.634Z,97480.19
2019-02-26T21:14:46.910Z,97478.41
2019-02-26T21:17:14.019Z,97482.78
2019-02-26T21:19:40.211Z,97477.17
2019-02-26T21:22:06.321Z,97474.33
2019-02-26T21:24:34.642Z,97480.77
2019-02-26T21:27:00.714Z,97484.88
2019-02-26T21:29:27.913Z,97484.50
2019-02-26T21:31:54.095Z,97482.48
2019-02-26T21:34:20.684Z,97479.98
2019-02-26T21:36:46.879Z,97474.38
2019-02-26T21:39:13.096Z,97478.16
2019-02-26T21:41:40.122Z,97477.59
2019-02-26T21:44:08.731Z,97473.84
2019-02-26T21:46:36.206Z,97470.25
2019-02-26T21:49:02.668Z,97463.48
2019-02-26T21:51:28.899Z,97469.69
2019-02-26T21:53:55.228Z,97467.16
2019-02-26T21:56:21.553Z,97466.78
2019-02-26T21:58:48.963Z,97465.93
2019-02-26T22:01:15.057Z,97464.42
2019-02-26T22:03:41.251Z,97461.13
2019-02-26T22:06:10.761Z,97460.95
2019-02-26T22:08:35.518Z,97461.44
2019-02-26T22:11:01.667Z,97453.84
2019-02-26T22:13:29.388Z,97459.33
2019-02-26T22:15:56.141Z,97465.72
2019-02-26T22:18:22.397Z,97457.67
2019-02-26T22:20:49.525Z,97457.02
2019-02-26T22:23:15.892Z,97454.41
2019-02-26T22:25:42.266Z,97453.09
2019-02-26T22:28:09.301Z,97443.42
2019-02-26T22:30:35.495Z,97446.20
2019-02-26T22:33:02.195Z,97445.92
2019-02-26T22:35:28.695Z,97443.30
2019-02-26T22:37:54.884Z,97436.08
2019-02-26T22:40:22.739Z,97438.00
2019-02-26T22:42:49.104Z,97435.99
2019-02-26T22:45:15.315Z,97434.80
2019-02-26T22:47:43.934Z,97433.64
2019-02-26T22:50:16.271Z,97428.75
2019-02-26T22:52:42.875Z,97429.81
2019-02-26T22:55:15.987Z,97431.38
2019-02-26T22:57:40.187Z,97432.11
2019-02-26T23:00:29.979Z,97436.32
2019-02-26T23:02:58.323Z,97428.47
2019-02-26T23:05:25.597Z,97436.12
2019-02-26T23:07:52.567Z,97434.22
2019-02-26T23:10:18.844Z,97434.30
2019-02-26T23:12:45.228Z,97424.86
2019-02-26T23:15:11.967Z,97429.80
2019-02-26T23:17:38.959Z,97427.73
2019-02-26T23:20:07.572Z,97427.11
2019-02-26T23:22:33.846Z,97417.95
2019-02-26T23:25:00.990Z,97414.11
2019-02-26T23:27:30.178Z,97420.42
2019-02-26T23:29:56.427Z,97416.75
2019-02-26T23:32:23.328Z,97413.84
2019-02-26T23:35:05.547Z,97419.08
2019-02-26T23:37:35.287Z,97419.53
2019-02-26T23:40:02.951Z,97420.55
2019-02-26T23:42:31.196Z,97418.88
2019-02-26T23:44:57.373Z,97417.08
2019-02-26T23:47:23.451Z,97421.61
2019-02-26T23:49:49.943Z,97425.36
2019-02-26T23:52:16.021Z,97424.17
2019-02-26T23:54:42.670Z,97422.92
2019-02-26T23:57:08.761Z,97433.19
2019-02-26T23:59:37.719Z,97431.34
